createdAt,value
2022-11-08T00:00:56.636Z,5.54
2022-11-08T00:03:25.450Z,5.52
2022-11-08T00:06:14.658Z,5.50
2022-11-08T00:09:01.828Z,5.51
2022-11-08T00:11:49.303Z,5.54
2022-11-08T00:14:18.156Z,5.55
2022-11-08T00:16:47.014Z,5.57
2022-11-08T00:19:16.162Z,5.59
2022-11-08T00:21:45.237Z,5.59
2022-11-08T00:24:14.097Z,5.59
2022-11-08T00:26:43.138Z,5.61
2022-11-08T00:29:11.939Z,5.66
2022-11-08T00:31:40.889Z,5.71
2022-11-08T00:34:10.049Z,5.74
2022-11-08T00:36:41.111Z,5.78
2022-11-08T00:39:11.298Z,5.78
2022-11-08T00:41:40.386Z,5.74
2022-11-08T00:44:09.242Z,5.74
2022-11-08T00:46:39.223Z,5.72
2022-11-08T00:49:08.873Z,5.70
2022-11-08T00:51:39.727Z,5.70
2022-11-08T00:54:17.802Z,5.71
2022-11-08T00:56:47.179Z,5.72
2022-11-08T00:59:18.860Z,5.72
2022-11-08T01:01:48.415Z,5.72
2022-11-08T01:04:19.497Z,5.74
2022-11-08T01:06:48.276Z,5.73
2022-11-08T01:09:16.935Z,5.73
2022-11-08T01:11:46.907Z,5.74
2022-11-08T01:14:15.795Z,5.76
2022-11-08T01:16:45.513Z,5.73
2022-11-08T01:19:14.060Z,5.78
2022-11-08T01:21:42.732Z,5.76
2022-11-08T01:24:11.507Z,5.76
2022-11-08T01:26:40.229Z,5.74
2022-11-08T01:29:08.847Z,5.76
2022-11-08T01:31:37.473Z,5.80
2022-11-08T01:34:06.166Z,5.84
2022-11-08T01:36:34.981Z,5.86
2022-11-08T01:39:03.865Z,5.88
2022-11-08T01:41:32.480Z,5.89
2022-11-08T01:44:01.789Z,5.90
2022-11-08T01:46:37.804Z,5.92
2022-11-08T01:49:33.747Z,5.91
2022-11-08T01:52:52.679Z,5.94
2022-11-08T01:55:36.071Z,5.96
2022-11-08T01:58:25.734Z,5.97
2022-11-08T02:00:54.472Z,5.98
2022-11-08T02:03:23.466Z,5.98
2022-11-08T02:05:52.392Z,5.96
2022-11-08T02:08:35.013Z,5.96
2022-11-08T02:11:04.878Z,5.97
2022-11-08T02:13:35.890Z,6.00
2022-11-08T02:16:14.242Z,6.04
2022-11-08T02:18:44.763Z,6.08
2022-11-08T02:21:34.797Z,6.11
2022-11-08T02:24:08.960Z,6.13
2022-11-08T02:26:38.330Z,6.15
2022-11-08T02:29:42.557Z,6.16
2022-11-08T02:32:11.503Z,6.16
2022-11-08T02:34:49.329Z,6.08
2022-11-08T02:37:20.411Z,6.04
2022-11-08T02:39:49.235Z,6.06
2022-11-08T02:42:20.773Z,6.07
2022-11-08T02:44:50.138Z,6.03
2022-11-08T02:47:18.863Z,6.02
2022-11-08T02:49:47.789Z,6.00
2022-11-08T02:52:17.079Z,6.00
2022-11-08T02:54:45.759Z,6.00
2022-11-08T02:57:14.718Z,5.98
2022-11-08T02:59:43.525Z,5.98
2022-11-08T03:02:12.317Z,5.99
2022-11-08T03:04:41.028Z,6.01
2022-11-08T03:07:09.874Z,6.04
2022-11-08T03:09:38.728Z,6.04
2022-11-08T03:12:07.779Z,6.04
2022-11-08T03:14:36.463Z,6.00
2022-11-08T03:17:05.254Z,5.96
2022-11-08T03:19:33.990Z,5.94
2022-11-08T03:22:02.906Z,5.93
2022-11-08T03:24:31.780Z,5.93
2022-11-08T03:27:00.877Z,5.94
2022-11-08T03:29:29.462Z,5.91
2022-11-08T03:31:58.103Z,5.88
2022-11-08T03:34:26.944Z,5.85
2022-11-08T03:36:55.751Z,5.83
2022-11-08T03:39:24.565Z,5.82
2022-11-08T03:41:53.363Z,5.81
2022-11-08T03:44:22.194Z,5.82
2022-11-08T03:50:17.568Z,5.92
2022-11-08T03:52:54.811Z,5.89
2022-11-08T03:55:26.890Z,5.83
2022-11-08T03:57:56.379Z,5.79
2022-11-08T04:00:28.792Z,5.78
2022-11-08T04:03:04.613Z,5.77
2022-11-08T04:05:33.827Z,5.78
2022-11-08T04:08:02.506Z,5.79
2022-11-08T04:10:31.852Z,5.78
2022-11-08T04:13:21.959Z,5.79
2022-11-08T04:15:55.653Z,5.78
2022-11-08T04:18:43.127Z,5.78
2022-11-08T04:21:20.133Z,5.76
2022-11-08T04:23:51.164Z,5.73
2022-11-08T04:26:22.108Z,5.68
2022-11-08T04:28:50.662Z,5.66
2022-11-08T04:31:20.541Z,5.64
2022-11-08T04:33:49.337Z,5.63
2022-11-08T04:36:18.363Z,5.60
2022-11-08T04:38:51.992Z,5.57
2022-11-08T04:41:40.860Z,5.58
2022-11-08T04:44:10.596Z,5.54
2022-11-08T04:46:39.317Z,5.53
2022-11-08T04:49:08.874Z,5.53
2022-11-08T04:51:38.433Z,5.55
2022-11-08T04:54:07.920Z,5.59
2022-11-08T04:56:36.597Z,5.62
2022-11-08T04:59:11.687Z,5.63
2022-11-08T05:01:43.035Z,5.64
2022-11-08T05:04:12.069Z,5.67
2022-11-08T05:06:40.906Z,5.67
2022-11-08T05:09:10.179Z,5.69
2022-11-08T05:11:39.127Z,5.72
2022-11-08T05:14:08.127Z,5.77
2022-11-08T05:16:36.951Z,5.81
2022-11-08T05:19:10.507Z,5.84
2022-11-08T05:22:03.467Z,5.86
2022-11-08T05:24:34.514Z,5.88
2022-11-08T05:27:04.982Z,5.90
2022-11-08T05:29:37.435Z,5.92
2022-11-08T05:32:09.323Z,5.94
2022-11-08T05:34:38.249Z,5.97
2022-11-08T05:37:29.787Z,5.98
2022-11-08T05:39:58.827Z,6.07
2022-11-08T05:42:27.593Z,6.11
2022-11-08T05:44:56.439Z,6.10
2022-11-08T05:47:25.234Z,6.05
2022-11-08T05:49:54.413Z,6.02
2022-11-08T05:52:23.238Z,5.99
2022-11-08T05:54:51.968Z,5.99
2022-11-08T05:57:22.195Z,6.05
2022-11-08T05:59:51.237Z,6.11
2022-11-08T06:02:20.450Z,6.17
2022-11-08T06:04:50.132Z,6.23
2022-11-08T06:07:18.794Z,6.27
2022-11-08T06:09:47.887Z,6.31
2022-11-08T06:12:16.508Z,6.34
2022-11-08T06:14:45.196Z,6.33
2022-11-08T06:17:13.814Z,6.34
2022-11-08T06:19:42.676Z,6.40
2022-11-08T06:22:11.656Z,6.41
2022-11-08T06:24:41.237Z,6.38
2022-11-08T06:27:09.966Z,6.37
2022-11-08T06:29:38.765Z,6.34
2022-11-08T06:36:35.416Z,6.61
2022-11-08T06:39:04.894Z,6.66
2022-11-08T06:41:34.317Z,6.76
2022-11-08T06:44:03.294Z,6.79
2022-11-08T06:46:32.184Z,6.80
2022-11-08T06:49:00.983Z,6.79
2022-11-08T06:51:29.965Z,6.78
2022-11-08T06:53:59.036Z,6.78
2022-11-08T06:56:27.833Z,6.81
2022-11-08T06:58:56.429Z,6.89
2022-11-08T07:01:25.563Z,6.98
2022-11-08T07:03:54.546Z,7.05
2022-11-08T07:06:23.355Z,7.08
2022-11-08T07:08:52.162Z,7.14
2022-11-08T07:11:20.956Z,7.18
2022-11-08T07:13:49.954Z,7.23
2022-11-08T07:16:19.056Z,7.32
2022-11-08T07:18:47.859Z,7.39
2022-11-08T07:21:16.629Z,7.47
2022-11-08T07:23:45.411Z,7.57
2022-11-08T07:26:14.306Z,7.64
2022-11-08T07:28:43.301Z,7.70
2022-11-08T07:31:12.390Z,7.77
2022-11-08T07:33:41.180Z,7.82
2022-11-08T07:36:10.360Z,7.87
2022-11-08T07:38:39.201Z,7.91
2022-11-08T07:41:09.365Z,7.97
2022-11-08T07:43:38.151Z,8.04
2022-11-08T07:46:12.021Z,8.11
2022-11-08T07:48:40.784Z,8.15
2022-11-08T07:51:09.489Z,8.20
2022-11-08T07:53:39.225Z,8.24
2022-11-08T07:56:08.063Z,8.28
2022-11-08T07:58:37.175Z,8.28
2022-11-08T08:01:07.162Z,8.30
2022-11-08T08:04:12.429Z,8.33
2022-11-08T08:06:41.792Z,8.33
2022-11-08T08:09:31.107Z,8.47
2022-11-08T08:12:27.863Z,8.59
2022-11-08T08:14:56.628Z,8.58
2022-11-08T08:17:25.608Z,8.65
2022-11-08T08:19:54.634Z,8.73
2022-11-08T08:22:23.318Z,8.77
2022-11-08T08:24:51.981Z,8.75
2022-11-08T08:27:20.722Z,8.75
2022-11-08T08:29:50.017Z,8.79
2022-11-08T08:32:18.834Z,8.83
2022-11-08T08:34:47.580Z,8.86
2022-11-08T08:37:17.575Z,8.91
2022-11-08T08:39:46.925Z,8.96
2022-11-08T08:42:16.419Z,9.01
2022-11-08T08:44:45.652Z,9.09
2022-11-08T08:47:14.304Z,9.14
2022-11-08T08:49:43.042Z,9.20
2022-11-08T08:52:11.929Z,9.28
2022-11-08T08:54:40.599Z,9.39
2022-11-08T08:57:09.640Z,9.46
2022-11-08T09:02:27.466Z,9.60
2022-11-08T09:04:56.150Z,9.68
2022-11-08T09:07:25.077Z,9.74
2022-11-08T09:09:53.913Z,9.78
2022-11-08T09:12:23.256Z,9.84
2022-11-08T09:14:52.058Z,9.98
2022-11-08T09:17:20.954Z,10.10
2022-11-08T09:19:56.872Z,10.20
2022-11-08T09:22:26.214Z,10.33
2022-11-08T09:24:54.999Z,10.44
2022-11-08T09:27:23.907Z,10.49
2022-11-08T09:29:52.756Z,10.56
2022-11-08T09:32:33.705Z,10.65
2022-11-08T09:35:11.047Z,10.72
2022-11-08T09:37:40.832Z,10.70
2022-11-08T09:40:19.042Z,10.66
2022-11-08T09:43:28.512Z,10.61
2022-11-08T09:46:01.738Z,10.53
2022-11-08T09:48:42.614Z,10.51
2022-11-08T09:51:20.759Z,10.54
2022-11-08T09:53:54.864Z,10.54
2022-11-08T09:56:38.082Z,10.53
2022-11-08T09:59:44.265Z,10.56
2022-11-08T10:02:23.717Z,10.57
2022-11-08T10:19:20.643Z,11.04
2022-11-08T10:22:40.181Z,11.13
2022-11-08T10:25:31.036Z,11.09
2022-11-08T10:28:01.781Z,11.09
2022-11-08T10:30:41.943Z,11.13
2022-11-08T10:33:19.797Z,11.13
2022-11-08T10:36:03.624Z,11.19
2022-11-08T10:38:45.726Z,11.19
2022-11-08T10:41:42.618Z,11.25
2022-11-08T10:55:01.674Z,11.84
2022-11-08T10:57:33.164Z,11.94
2022-11-08T11:00:22.283Z,11.91
2022-11-08T11:03:23.491Z,11.86
2022-11-08T11:06:02.084Z,11.83
2022-11-08T11:08:31.652Z,11.86
2022-11-08T11:11:33.099Z,11.92
2022-11-08T11:14:19.376Z,12.00
2022-11-08T11:17:07.814Z,12.07
2022-11-08T11:19:36.734Z,12.12
2022-11-08T11:22:08.555Z,12.15
2022-11-08T11:24:47.300Z,12.18
2022-11-08T11:27:31.098Z,12.21
2022-11-08T11:30:25.470Z,12.24
2022-11-08T11:33:23.917Z,12.29
2022-11-08T11:36:12.264Z,12.31
2022-11-08T11:39:01.625Z,12.30
2022-11-08T11:42:08.665Z,12.33
2022-11-08T11:45:15.553Z,12.35
2022-11-08T11:47:51.550Z,12.37
2022-11-08T11:50:33.420Z,12.40
2022-11-08T11:53:19.317Z,12.42
2022-11-08T11:56:20.236Z,12.38
2022-11-08T11:59:22.717Z,12.36
2022-11-08T12:02:47.977Z,12.35
2022-11-08T12:05:46.536Z,12.36
2022-11-08T12:09:02.503Z,12.36
2022-11-08T12:12:04.059Z,12.35
2022-11-08T12:14:44.599Z,12.35
2022-11-08T12:17:24.012Z,12.32
2022-11-08T12:19:58.849Z,12.30
2022-11-08T12:22:56.235Z,12.31
2022-11-08T12:28:44.302Z,12.46
2022-11-08T12:31:26.229Z,12.48
2022-11-08T12:34:23.993Z,12.51
2022-11-08T12:36:58.783Z,12.55
2022-11-08T12:39:59.720Z,12.60
2022-11-08T12:43:03.097Z,12.64
2022-11-08T12:46:18.719Z,12.68
2022-11-08T12:49:19.355Z,12.69
2022-11-08T12:52:00.307Z,12.68
2022-11-08T12:54:44.619Z,12.68
2022-11-08T12:57:16.944Z,12.67
2022-11-08T12:59:52.789Z,12.63
2022-11-08T13:02:43.541Z,12.57
2022-11-08T13:05:32.091Z,12.51
2022-11-08T13:08:19.283Z,12.44
2022-11-08T13:11:05.006Z,12.36
2022-11-08T13:13:55.149Z,12.29
2022-11-08T13:16:26.115Z,12.24
2022-11-08T13:18:58.183Z,12.22
2022-11-08T13:21:34.411Z,12.21
2022-11-08T13:24:09.786Z,12.21
2022-11-08T13:26:43.471Z,12.24
2022-11-08T13:29:18.974Z,12.27
2022-11-08T13:32:13.051Z,12.29
2022-11-08T13:35:01.938Z,12.32
2022-11-08T13:37:48.831Z,12.36
2022-11-08T13:40:29.661Z,12.39
2022-11-08T13:46:29.835Z,12.46
2022-11-08T13:48:58.517Z,12.44
2022-11-08T13:51:38.349Z,12.44
2022-11-08T13:54:22.623Z,12.44
2022-11-08T13:56:57.154Z,12.45
2022-11-08T13:59:33.136Z,12.44
2022-11-08T14:02:25.055Z,12.43
2022-11-08T14:04:55.343Z,12.43
2022-11-08T14:08:03.212Z,12.39
2022-11-08T14:11:07.884Z,12.39
2022-11-08T14:13:58.942Z,12.36
2022-11-08T14:16:42.059Z,12.31
2022-11-08T14:19:26.556Z,12.25
2022-11-08T14:21:59.778Z,12.17
2022-11-08T14:24:36.668Z,12.09
2022-11-08T14:27:06.758Z,12.01
2022-11-08T14:29:38.067Z,11.92
2022-11-08T14:32:18.696Z,11.85
2022-11-08T14:34:47.936Z,11.76
2022-11-08T14:37:30.294Z,11.70
2022-11-08T14:39:59.583Z,11.61
2022-11-08T14:42:28.430Z,11.53
2022-11-08T14:44:59.026Z,11.44
2022-11-08T14:47:31.592Z,11.36
2022-11-08T14:50:00.827Z,11.28
2022-11-08T14:52:36.317Z,11.20
2022-11-08T14:55:12.322Z,11.12
2022-11-08T14:57:47.527Z,11.03
2022-11-08T15:00:29.508Z,10.94
2022-11-08T15:03:04.098Z,10.84
2022-11-08T15:05:57.883Z,10.76
2022-11-08T15:08:35.336Z,10.69
2022-11-08T15:11:29.266Z,10.63
2022-11-08T15:14:18.239Z,10.59
2022-11-08T15:16:54.591Z,10.58
2022-11-08T15:19:32.077Z,10.56
2022-11-08T15:22:04.695Z,10.54
2022-11-08T15:24:40.829Z,10.47
2022-11-08T15:27:11.530Z,10.45
2022-11-08T15:30:20.588Z,10.40
2022-11-08T15:33:24.164Z,10.36
2022-11-08T15:35:53.600Z,10.28
2022-11-08T15:38:37.024Z,10.21
2022-11-08T15:41:33.458Z,10.15
2022-11-08T15:44:24.245Z,10.10
2022-11-08T15:46:54.848Z,10.06
2022-11-08T15:49:29.430Z,10.04
2022-11-08T15:52:02.027Z,10.02
2022-11-08T15:54:31.268Z,10.02
2022-11-08T15:57:04.187Z,10.01
2022-11-08T15:59:36.613Z,10.01
2022-11-08T16:02:16.245Z,9.97
2022-11-08T16:04:45.706Z,10.02
2022-11-08T16:07:17.592Z,10.03
2022-11-08T16:09:56.471Z,10.02
2022-11-08T16:12:28.616Z,10.02
2022-11-08T16:14:58.129Z,10.00
2022-11-08T16:17:27.028Z,9.99
2022-11-08T16:19:55.769Z,9.96
2022-11-08T16:22:24.706Z,9.89
2022-11-08T16:24:53.247Z,9.84
2022-11-08T16:27:22.383Z,9.79
2022-11-08T16:29:51.227Z,9.76
2022-11-08T16:32:20.328Z,9.74
2022-11-08T16:34:49.726Z,9.73
2022-11-08T16:37:20.104Z,9.70
2022-11-08T16:39:50.687Z,9.65
2022-11-08T16:42:19.466Z,9.60
2022-11-08T16:44:48.252Z,9.55
2022-11-08T16:47:19.791Z,9.49
2022-11-08T16:49:51.248Z,9.44
2022-11-08T16:52:20.411Z,9.40
2022-11-08T16:54:49.758Z,9.36
2022-11-08T16:57:34.342Z,9.33
2022-11-08T17:00:07.141Z,9.30
2022-11-08T17:02:46.569Z,9.28
2022-11-08T17:05:22.625Z,9.24
2022-11-08T17:07:54.414Z,9.19
2022-11-08T17:24:22.162Z,9.27
2022-11-08T17:26:51.398Z,9.19
2022-11-08T17:29:20.291Z,9.09
2022-11-08T17:31:49.518Z,8.99
2022-11-08T17:34:18.504Z,8.87
2022-11-08T17:36:47.865Z,8.76
2022-11-08T17:39:16.834Z,8.66
2022-11-08T17:43:30.623Z,8.57
2022-11-08T17:46:03.957Z,8.48
2022-11-08T17:48:33.421Z,8.42
2022-11-08T17:51:02.353Z,8.39
2022-11-08T17:53:31.211Z,8.34
2022-11-08T17:56:04.555Z,8.28
2022-11-08T17:58:34.858Z,8.22
2022-11-08T18:01:06.402Z,8.17
2022-11-08T18:03:35.502Z,8.10
2022-11-08T18:06:11.648Z,8.06
2022-11-08T18:08:42.252Z,8.02
2022-11-08T18:11:11.154Z,8.00
2022-11-08T18:13:39.873Z,8.00
2022-11-08T18:16:12.389Z,8.00
2022-11-08T18:18:46.376Z,8.00
2022-11-08T18:21:17.933Z,7.98
2022-11-08T18:23:47.583Z,7.94
2022-11-08T18:26:19.080Z,7.89
2022-11-08T18:29:05.647Z,7.85
2022-11-08T18:31:37.222Z,7.81
2022-11-08T18:34:06.420Z,7.78
2022-11-08T18:36:35.427Z,7.78
2022-11-08T18:39:04.384Z,7.78
2022-11-08T18:41:34.402Z,7.78
2022-11-08T18:56:08.086Z,8.03
2022-11-08T18:58:35.816Z,8.08
2022-11-08T19:01:04.510Z,8.07
2022-11-08T19:03:33.116Z,8.04
2022-11-08T19:06:01.000Z,8.00
2022-11-08T19:22:26.716Z,8.15
2022-11-08T19:24:55.054Z,8.09
2022-11-08T19:27:22.775Z,8.02
2022-11-08T19:29:51.506Z,7.98
2022-11-08T19:32:22.750Z,7.92
2022-11-08T19:34:50.861Z,7.87
2022-11-08T19:37:18.674Z,7.80
2022-11-08T19:39:46.548Z,7.73
2022-11-08T19:42:14.377Z,7.65
2022-11-08T19:44:41.898Z,7.57
2022-11-08T19:47:09.637Z,7.54
2022-11-08T19:49:37.808Z,7.50
2022-11-08T19:52:05.889Z,7.47
2022-11-08T19:54:33.540Z,7.42
2022-11-08T19:57:05.840Z,7.39
2022-11-08T19:59:34.123Z,7.35
2022-11-08T20:02:02.011Z,7.30
2022-11-08T20:04:29.691Z,7.28
2022-11-08T20:06:57.512Z,7.26
2022-11-08T20:09:30.328Z,7.21
2022-11-08T20:11:59.049Z,7.19
2022-11-08T20:14:26.795Z,7.19
2022-11-08T20:16:58.355Z,7.19
2022-11-08T20:19:26.031Z,7.20
2022-11-08T20:21:57.306Z,7.20
2022-11-08T20:24:25.220Z,7.20
2022-11-08T20:26:55.068Z,7.19
2022-11-08T20:29:23.481Z,7.17
2022-11-08T20:31:53.054Z,7.15
2022-11-08T20:34:21.389Z,7.16
2022-11-08T20:36:49.333Z,7.19
2022-11-08T20:39:17.028Z,7.21
2022-11-08T20:41:44.589Z,7.25
2022-11-08T20:44:12.315Z,7.29
2022-11-08T20:46:40.028Z,7.29
2022-11-08T20:49:08.352Z,7.30
2022-11-08T20:51:39.707Z,7.30
2022-11-08T20:54:09.521Z,7.26
2022-11-08T20:56:37.640Z,7.23
2022-11-08T20:59:10.637Z,7.21
2022-11-08T21:01:39.084Z,7.23
2022-11-08T21:04:08.287Z,7.21
2022-11-08T21:06:36.652Z,7.18
2022-11-08T21:09:27.806Z,7.14
2022-11-08T21:11:54.193Z,7.09
2022-11-08T21:14:23.550Z,7.02
2022-11-08T21:17:20.185Z,6.97
2022-11-08T21:19:40.337Z,6.93
2022-11-08T21:22:17.413Z,6.90
2022-11-08T21:24:50.196Z,6.89
2022-11-08T21:27:18.170Z,6.85
2022-11-08T21:29:45.741Z,6.82
2022-11-08T21:32:16.331Z,6.79
2022-11-08T21:34:47.327Z,6.74
2022-11-08T21:37:15.904Z,6.69
2022-11-08T21:39:43.827Z,6.65
2022-11-08T21:42:11.614Z,6.61
2022-11-08T21:44:42.174Z,6.59
2022-11-08T21:47:11.223Z,6.55
2022-11-08T21:50:13.061Z,6.53
2022-11-08T21:52:49.769Z,6.47
2022-11-08T21:55:18.820Z,6.44
2022-11-08T21:57:50.139Z,6.40
2022-11-08T22:00:21.207Z,6.36
2022-11-08T22:08:38.557Z,6.32
2022-11-08T22:11:08.562Z,6.28
2022-11-08T22:13:37.480Z,6.24
2022-11-08T22:16:06.818Z,6.18
2022-11-08T22:18:58.821Z,6.14
2022-11-08T22:21:38.194Z,6.10
2022-11-08T22:24:20.670Z,6.07
2022-11-08T22:26:54.026Z,6.05
2022-11-08T22:29:23.861Z,6.04
2022-11-08T22:31:58.101Z,6.05
2022-11-08T22:34:27.394Z,6.04
2022-11-08T22:36:56.355Z,6.02
2022-11-08T22:39:25.466Z,5.97
2022-11-08T22:41:56.388Z,5.91
2022-11-08T22:44:25.442Z,5.85
2022-11-08T22:46:54.429Z,5.81
2022-11-08T22:49:25.055Z,5.78
2022-11-08T22:51:54.325Z,5.77
2022-11-08T22:54:23.315Z,5.77
2022-11-08T22:56:51.969Z,5.76
2022-11-08T22:59:20.955Z,5.73
2022-11-08T23:01:49.959Z,5.68
2022-11-08T23:04:19.252Z,5.62
2022-11-08T23:06:48.217Z,5.57
2022-11-08T23:09:17.220Z,5.53
2022-11-08T23:12:04.628Z,5.50
2022-11-08T23:14:52.174Z,5.48
2022-11-08T23:17:21.026Z,5.47
2022-11-08T23:20:08.688Z,5.43
2022-11-08T23:22:56.218Z,5.41
2022-11-08T23:25:25.108Z,5.38
2022-11-08T23:28:12.629Z,5.36
2022-11-08T23:30:59.602Z,5.36
2022-11-08T23:33:28.430Z,5.39
2022-11-08T23:36:12.489Z,5.44
2022-11-08T23:38:42.341Z,5.50
2022-11-08T23:41:30.349Z,5.54
2022-11-08T23:44:17.459Z,5.58
2022-11-08T23:46:46.191Z,5.62
2022-11-08T23:49:14.982Z,5.65
2022-11-08T23:51:44.020Z,5.69
2022-11-08T23:54:13.042Z,5.74
2022-11-08T23:56:42.192Z,5.80
2022-11-08T23:59:11.684Z,5.85
